Time;durP1;ratioP1;P1;durP2;ratioP2;P2;SDS_P1;SDS_P2;PMS_P1;PMS_P2;Temp;Humidity;BMP_temperature;BMP_pressure;BME280_temperature;BME280_humidity;BME280_pressure;Samples;Min_cycle;Max_cycle;Signal;HPM_P1;HPM_P2
2021/08/08 00:02:26;;;;;;;1.60;1.50;;;;;;;13.05;71.25;99925.09;5029592;28;20576;-68
2021/08/08 00:04:55;;;;;;;1.87;1.57;;;;;;;13.24;71.30;99953.97;5029106;28;20200;-67
2021/08/08 00:07:23;;;;;;;1.63;1.53;;;;;;;13.08;71.52;99926.66;5032901;28;20200;-67
2021/08/08 00:09:51;;;;;;;4.30;1.63;;;;;;;13.27;70.77;99947.44;5032536;28;20392;-67
2021/08/08 00:12:20;;;;;;;1.67;1.57;;;;;;;13.28;71.19;99955.38;5033393;28;20213;-68
2021/08/08 00:14:48;;;;;;;1.67;1.53;;;;;;;13.17;71.45;99947.44;5032355;28;20202;-67
2021/08/08 00:17:17;;;;;;;1.93;1.50;;;;;;;13.10;71.09;99948.94;5032829;28;20236;-67
2021/08/08 00:19:45;;;;;;;1.90;1.70;;;;;;;13.22;71.55;99974.81;5032357;28;20560;-67
2021/08/08 00:22:13;;;;;;;1.97;1.50;;;;;;;13.18;72.13;99978.78;5033323;28;20639;-67
2021/08/08 00:24:41;;;;;;;3.17;1.60;;;;;;;13.13;72.53;99981.00;5032256;28;20207;-67
2021/08/08 00:27:10;;;;;;;1.73;1.40;;;;;;;13.09;72.25;99979.56;5032669;28;20200;-68
2021/08/08 00:29:39;;;;;;;1.53;1.43;;;;;;;13.06;72.75;99982.53;5032408;28;20229;-68
2021/08/08 00:32:08;;;;;;;1.90;1.70;;;;;;;13.06;72.89;99975.31;5032424;28;20645;-67
2021/08/08 00:34:40;;;;;;;2.60;1.80;;;;;;;12.81;72.74;99935.41;5031259;28;20213;-67
2021/08/08 00:37:08;;;;;;;1.67;1.43;;;;;;;13.06;72.53;99969.91;5026324;28;20204;-67
2021/08/08 00:39:37;;;;;;;2.07;1.37;;;;;;;13.04;72.02;99955.72;5023650;28;20636;-67
2021/08/08 00:42:05;;;;;;;1.57;1.47;;;;;;;12.95;71.70;99939.56;5030737;28;20197;-67
2021/08/08 00:44:34;;;;;;;6.10;1.50;;;;;;;13.11;71.36;99963.25;5047519;28;20262;-67
2021/08/08 00:47:04;;;;;;;1.67;1.57;;;;;;;13.11;71.64;99960.56;5030896;28;20538;-67
2021/08/08 00:49:34;;;;;;;3.47;1.47;;;;;;;12.73;71.52;99889.44;5047238;28;20610;-67
2021/08/08 00:52:03;;;;;;;5.13;1.53;;;;;;;13.12;71.62;99944.25;5044254;28;20221;-67
2021/08/08 00:54:36;;;;;;;814.53;641.83;;;;;;;13.11;71.66;99952.47;5029206;28;20209;-67
2021/08/08 00:57:05;;;;;;;1.53;1.43;;;;;;;13.08;72.24;99945.53;5036437;28;20255;-67
2021/08/08 00:59:34;;;;;;;802.60;647.20;;;;;;;13.07;71.57;99946.50;5041402;28;20701;-67
2021/08/08 01:02:06;;;;;;;1.70;1.60;;;;;;;12.64;71.49;99871.41;5022358;28;20560;-68
2021/08/08 01:04:40;;;;;;;2.23;1.97;;;;;;;13.06;71.86;99944.81;5031589;28;20569;-67
2021/08/08 01:07:12;;;;;;;1.40;1.30;;;;;;;12.98;71.21;99933.88;5045114;28;20208;-68
2021/08/08 01:09:46;;;;;;;1.50;1.40;;;;;;;13.09;71.94;99952.63;5032610;28;20226;-67
2021/08/08 01:12:16;;;;;;;1.60;1.50;;;;;;;13.06;72.13;99952.91;5046701;28;20209;-67
2021/08/08 01:14:51;;;;;;;1.50;1.40;;;;;;;13.08;72.20;99956.31;5044901;28;20205;-68
2021/08/08 01:17:23;;;;;;;10.30;1.50;;;;;;;13.02;72.76;99955.03;5045530;28;20256;-68
2021/08/08 01:19:57;;;;;;;1.50;1.40;;;;;;;13.04;72.78;99960.28;5046654;28;20264;-68
2021/08/08 01:22:30;;;;;;;1.70;1.60;;;;;;;13.06;72.42;99955.59;5047577;28;20254;-68
2021/08/08 01:25:06;;;;;;;1.20;1.20;;;;;;;13.06;72.46;99958.28;5030441;28;20209;-67
2021/08/08 01:27:35;;;;;;;2.40;1.47;;;;;;;13.11;72.19;99963.25;5030349;28;20584;-67
2021/08/08 01:30:03;;;;;;;1.53;1.43;;;;;;;13.12;71.91;99960.41;5046709;28;20234;-67
2021/08/08 01:32:33;;;;;;;4.13;1.60;;;;;;;12.87;72.31;99902.53;5031642;28;20194;-68
2021/08/08 01:35:03;;;;;;;1.50;1.40;;;;;;;13.21;72.32;99943.47;5046799;28;20205;-68
2021/08/08 01:37:32;;;;;;;1.77;1.67;;;;;;;13.13;72.05;99924.38;5031617;28;20623;-68
2021/08/08 01:40:09;;;;;;;4.00;1.63;;;;;;;13.27;72.74;99937.50;5046677;28;20338;-68
2021/08/08 01:42:39;;;;;;;1.70;1.57;;;;;;;13.32;72.77;99943.31;5046815;28;20267;-67
2021/08/08 01:45:11;;;;;;;1.77;1.67;;;;;;;13.35;72.29;99937.63;5029824;28;20674;-67
2021/08/08 01:47:43;;;;;;;1.60;1.50;;;;;;;13.11;73.15;99885.06;5046763;28;20781;-68
2021/08/08 01:50:19;;;;;;;1.53;1.43;;;;;;;13.36;72.45;99928.53;5031163;28;20201;-67
2021/08/08 01:52:50;;;;;;;1.60;1.50;;;;;;;13.36;73.10;99928.53;5043134;28;20611;-67
2021/08/08 01:55:26;;;;;;;1.73;1.57;;;;;;;13.30;74.18;99925.56;5026792;28;20576;-68
2021/08/08 01:57:59;;;;;;;4.93;1.63;;;;;;;13.37;73.32;99924.00;5041299;28;20206;-67
2021/08/08 02:00:29;;;;;;;6.93;2.07;;;;;;;13.43;73.59;99930.66;5037422;28;20206;-67
2021/08/08 02:03:04;;;;;;;7.97;2.10;;;;;;;13.47;73.23;99945.56;5029591;28;20197;-67
2021/08/08 02:05:47;;;;;;;5.47;2.27;;;;;;;13.45;74.34;99939.47;5042803;28;20210;-68
2021/08/08 02:08:18;;;;;;;5.07;2.40;;;;;;;13.39;75.51;99951.69;5045456;28;20289;-68
2021/08/08 02:11:05;;;;;;;7.97;2.53;;;;;;;13.39;75.59;99942.75;5029357;28;20626;-67
2021/08/08 02:13:54;;;;;;;7.57;2.63;;;;;;;13.38;74.82;99943.72;5035208;28;20209;-67
2021/08/08 02:16:22;;;;;;;13.47;3.07;;;;;;;13.45;74.72;99936.78;5044077;28;20240;-67
2021/08/08 02:18:51;;;;;;;11.33;3.23;;;;;;;13.49;74.86;99949.84;5033850;28;20214;-67
2021/08/08 02:21:27;;;;;;;7.93;3.00;;;;;;;13.54;74.40;99960.22;5029092;28;20209;-68
2021/08/08 02:23:58;;;;;;;6.73;2.93;;;;;;;13.60;74.20;99952.41;5045634;28;20205;-68
2021/08/08 02:26:30;;;;;;;7.07;3.27;;;;;;;13.38;74.31;99911.38;5045783;28;20305;-68
2021/08/08 02:29:02;;;;;;;5.90;3.27;;;;;;;13.68;73.61;99960.63;5029049;28;20260;-67
2021/08/08 02:31:36;;;;;;;6.03;3.33;;;;;;;13.72;73.02;99950.38;5029077;28;20578;-68
2021/08/08 02:34:10;;;;;;;8.00;3.87;;;;;;;13.75;73.10;99944.69;5030522;28;20710;-68
2021/08/08 02:36:38;;;;;;;10.53;3.70;;;;;;;13.77;73.57;99945.41;5028832;28;20217;-67
2021/08/08 02:39:07;;;;;;;16.87;3.47;;;;;;;13.80;73.10;99958.66;5029041;28;20235;-67
2021/08/08 02:41:37;;;;;;;12.67;3.20;;;;;;;13.82;73.55;99951.25;5028956;28;20682;-67
2021/08/08 02:44:06;;;;;;;12.43;3.60;;;;;;;13.79;73.51;99956.94;5028926;28;20241;-68
2021/08/08 02:46:36;;;;;;;25.23;3.57;;;;;;;13.79;75.10;99956.09;5032790;28;20546;-68
2021/08/08 02:49:04;;;;;;;26.80;3.67;;;;;;;13.78;74.77;99954.38;5041062;28;20340;-68
2021/08/08 02:51:34;;;;;;;10.57;3.50;;;;;;;13.80;74.69;99958.66;5032706;28;20561;-68
2021/08/08 02:54:04;;;;;;;7.40;3.03;;;;;;;13.85;74.11;99967.16;5028877;28;20212;-68
2021/08/08 02:56:32;;;;;;;5.37;3.20;;;;;;;13.89;73.36;99957.78;5028670;28;20620;-68
2021/08/08 02:59:02;;;;;;;5.43;2.87;;;;;;;13.90;74.13;99964.88;5025150;28;20226;-68
2021/08/08 03:01:30;;;;;;;4.97;2.90;;;;;;;13.95;74.29;99953.63;5028041;28;20207;-68
2021/08/08 03:03:59;;;;;;;3.90;2.73;;;;;;;13.96;74.18;99955.34;5029833;28;20236;-68
2021/08/08 03:06:27;;;;;;;3.33;2.70;;;;;;;13.99;74.08;99955.88;5029645;28;20670;-68
2021/08/08 03:08:56;;;;;;;4.73;2.80;;;;;;;14.03;74.29;99961.84;5028209;28;20209;-68
2021/08/08 03:11:25;;;;;;;3.47;2.60;;;;;;;14.02;73.70;99959.28;5045114;28;20205;-67
2021/08/08 03:13:53;;;;;;;3.93;2.67;;;;;;;14.10;74.17;99960.28;5029680;28;20365;-67
2021/08/08 03:16:24;;;;;;;3.00;2.50;;;;;;;14.07;73.93;99954.31;5046057;28;20537;-67
2021/08/08 03:18:52;;;;;;;4.10;2.63;;;;;;;14.13;74.04;99956.44;5030734;28;20251;-67
2021/08/08 03:21:20;;;;;;;3.50;2.60;;;;;;;14.14;73.54;99966.25;5025447;28;20234;-67
2021/08/08 03:23:48;;;;;;;3.37;2.40;;;;;;;14.18;73.39;99970.34;5029131;28;20201;-68
2021/08/08 03:26:16;;;;;;;3.73;2.73;;;;;;;14.19;73.73;99954.00;5029578;28;20201;-68
2021/08/08 03:28:44;;;;;;;6.27;2.53;;;;;;;14.17;74.10;99952.44;5027972;28;20220;-67
2021/08/08 03:31:15;;;;;;;4.67;2.60;;;;;;;14.18;73.96;99964.97;5042242;28;20239;-67
2021/08/08 03:33:45;;;;;;;3.27;2.47;;;;;;;14.22;72.77;99977.16;5028745;28;20204;-67
2021/08/08 03:36:13;;;;;;;3.60;2.73;;;;;;;14.18;72.93;99968.50;5028089;28;20287;-68
2021/08/08 03:38:42;;;;;;;7.17;2.30;;;;;;;14.32;73.54;99999.59;5029282;28;20208;-68
2021/08/08 03:41:10;;;;;;;3.70;2.70;;;;;;;14.35;73.31;100004.69;5032009;28;20448;-68
2021/08/08 03:43:39;;;;;;;3.77;2.73;;;;;;;14.30;74.60;100009.69;5034560;28;20213;-68
2021/08/08 03:46:08;;;;;;;4.40;2.87;;;;;;;14.32;74.34;99999.59;5034750;28;20204;-67
2021/08/08 03:48:36;;;;;;;3.20;2.50;;;;;;;14.34;75.12;100008.41;5035599;28;20259;-67
2021/08/08 03:51:07;;;;;;;3.00;2.37;;;;;;;14.37;74.82;99997.28;5034557;28;20256;-68
2021/08/08 03:53:36;;;;;;;3.93;2.30;;;;;;;14.33;75.39;99987.78;5047774;28;20210;-68
2021/08/08 03:56:04;;;;;;;3.00;2.50;;;;;;;14.16;74.79;99964.25;5047864;28;20317;-68
2021/08/08 03:58:33;;;;;;;2.97;2.40;;;;;;;14.16;75.49;99956.16;5036075;28;20317;-67
2021/08/08 04:01:04;;;;;;;3.33;2.63;;;;;;;14.41;75.24;99989.78;5051036;28;20273;-68
2021/08/08 04:03:35;;;;;;;3.17;2.40;;;;;;;14.33;74.92;99976.97;5050717;28;20206;-68
2021/08/08 04:06:06;;;;;;;2.43;2.20;;;;;;;14.48;74.93;100001.72;5035595;28;20287;-68
2021/08/08 04:08:36;;;;;;;3.10;2.40;;;;;;;14.45;75.70;99997.47;5050788;28;20229;-68
2021/08/08 04:11:05;;;;;;;9.90;2.30;;;;;;;14.50;74.93;99989.75;5034171;28;20232;-68
2021/08/08 04:13:33;;;;;;;2.60;2.30;;;;;;;14.18;75.51;99919.91;5050887;28;20305;-68
2021/08/08 04:16:02;;;;;;;2.77;2.37;;;;;;;14.44;75.79;99960.66;5034075;28;20304;-67
2021/08/08 04:18:30;;;;;;;3.10;2.53;;;;;;;14.70;75.21;99987.84;5048054;28;20660;-68
2021/08/08 04:20:58;;;;;;;2.50;2.30;;;;;;;14.76;74.84;99981.00;5027440;28;20316;-68
2021/08/08 04:23:28;;;;;;;3.53;2.43;;;;;;;14.89;74.72;99984.19;5030313;28;20213;-68
2021/08/08 04:25:56;;;;;;;5.93;2.40;;;;;;;14.96;74.74;99979.88;5041096;28;20216;-68
2021/08/08 04:28:25;;;;;;;2.60;2.40;;;;;;;14.95;74.63;99961.09;5020127;28;20209;-68
2021/08/08 04:30:53;;;;;;;3.27;2.40;;;;;;;15.09;74.85;99991.19;5035115;28;20231;-67
2021/08/08 04:33:21;;;;;;;2.67;2.30;;;;;;;14.91;75.50;99955.13;5033956;28;20209;-67
2021/08/08 04:35:49;;;;;;;3.73;2.20;;;;;;;15.11;75.05;99983.78;5050462;28;20191;-67
2021/08/08 04:38:20;;;;;;;6.87;2.40;;;;;;;15.18;75.19;99984.88;5033981;28;20321;-67
2021/08/08 04:40:49;;;;;;;5.60;2.37;;;;;;;14.98;76.15;99950.81;5027005;28;20219;-67
2021/08/08 04:43:17;;;;;;;5.57;2.33;;;;;;;15.00;75.53;99940.72;5028614;28;20663;-67
2021/08/08 04:45:49;;;;;;;3.37;2.33;;;;;;;15.31;75.63;99975.53;5033696;28;20210;-67
2021/08/08 04:48:17;;;;;;;3.13;2.40;;;;;;;15.42;76.28;99988.84;5047630;28;20211;-67
2021/08/08 04:50:47;;;;;;;4.87;2.43;;;;;;;15.45;76.63;99972.28;5049411;28;20697;-67
2021/08/08 04:53:16;;;;;;;2.80;2.20;;;;;;;15.59;77.23;99977.19;5044899;28;20195;-67
2021/08/08 04:55:45;;;;;;;2.83;2.37;;;;;;;15.61;78.11;99977.91;5024733;28;20198;-67
2021/08/08 04:58:15;;;;;;;3.23;2.40;;;;;;;15.75;77.43;99971.94;5030901;28;20217;-68
2021/08/08 05:00:45;;;;;;;3.00;2.40;;;;;;;15.86;76.42;99972.69;5043857;28;20238;-68
2021/08/08 05:03:14;;;;;;;3.67;2.53;;;;;;;15.88;77.47;99970.66;5046932;28;20204;-67
2021/08/08 05:05:42;;;;;;;7.53;2.37;;;;;;;16.00;77.69;99980.25;5030565;28;20758;-67
2021/08/08 05:08:10;;;;;;;3.90;2.70;;;;;;;16.08;77.67;99977.59;5043733;28;20202;-67
2021/08/08 05:10:39;;;;;;;3.97;2.63;;;;;;;16.15;77.26;99981.38;5027466;28;20207;-67
2021/08/08 05:13:07;;;;;;;3.17;2.60;;;;;;;16.14;77.92;99991.34;5043792;28;20585;-66
2021/08/08 05:15:37;;;;;;;5.60;2.70;;;;;;;16.22;77.66;99979.72;5022398;28;20567;-67
2021/08/08 05:18:05;;;;;;;4.77;2.10;;;;;;;16.26;77.72;99983.84;5026171;28;20293;-67
2021/08/08 05:20:33;;;;;;;5.13;2.60;;;;;;;16.30;77.55;99982.50;5030052;28;20598;-67
2021/08/08 05:23:02;;;;;;;2.87;2.50;;;;;;;16.35;77.99;99985.59;5044200;28;20207;-67
2021/08/08 05:25:30;;;;;;;4.53;2.63;;;;;;;16.37;78.12;99986.28;5031662;28;20209;-67
2021/08/08 05:27:58;;;;;;;4.03;2.60;;;;;;;16.28;78.70;99978.25;5030060;28;20225;-67
2021/08/08 05:30:27;;;;;;;4.33;2.40;;;;;;;16.34;79.41;99989.31;5030068;28;20572;-67
2021/08/08 05:32:56;;;;;;;3.80;2.60;;;;;;;16.39;78.81;99997.78;5029676;28;20260;-67
2021/08/08 05:35:25;;;;;;;2.97;2.67;;;;;;;16.19;79.44;99947.53;5029926;28;20256;-67
2021/08/08 05:37:53;;;;;;;2.50;2.30;;;;;;;16.50;79.18;99999.38;5035706;28;20589;-68
2021/08/08 05:40:21;;;;;;;2.87;2.53;;;;;;;16.56;78.70;99997.91;5043710;28;20230;-67
2021/08/08 05:42:51;;;;;;;3.23;2.43;;;;;;;16.61;78.93;99988.28;5029711;28;20314;-67
2021/08/08 05:45:21;;;;;;;4.10;2.50;;;;;;;16.67;78.77;99990.38;5028762;28;20221;-67
2021/08/08 05:47:50;;;;;;;4.30;2.50;;;;;;;16.53;80.32;99992.78;5029968;28;20233;-68
2021/08/08 05:50:24;;;;;;;4.30;2.47;;;;;;;16.66;79.87;99987.81;5046342;28;20222;-67
2021/08/08 05:52:53;;;;;;;186.73;169.83;;;;;;;16.71;79.41;99982.75;5042644;28;20534;-67
2021/08/08 05:55:22;;;;;;;4.07;2.30;;;;;;;16.79;79.12;99974.66;5037312;28;20199;-67
2021/08/08 05:57:50;;;;;;;2.90;2.30;;;;;;;16.89;78.53;99972.69;5046106;28;20238;-67
2021/08/08 06:00:20;;;;;;;752.73;487.70;;;;;;;16.94;80.03;99977.63;5046204;28;20297;-67
2021/08/08 06:02:55;;;;;;;720.77;470.93;;;;;;;17.01;78.81;99987.63;5042782;28;20344;-68
2021/08/08 06:05:28;;;;;;;704.90;448.37;;;;;;;17.07;80.05;99981.53;5035815;28;20208;-67
2021/08/08 06:07:58;;;;;;;702.33;428.10;;;;;;;17.03;78.97;99958.47;5045777;28;20598;-67
2021/08/08 06:10:27;;;;;;;737.53;512.10;;;;;;;17.14;78.97;99989.03;5029271;28;20647;-67
2021/08/08 06:12:55;;;;;;;848.20;673.23;;;;;;;17.20;78.37;99980.25;5045598;28;20597;-68
2021/08/08 06:15:23;;;;;;;887.00;657.77;;;;;;;17.24;78.65;99981.59;5046048;28;20511;-68
2021/08/08 06:17:52;;;;;;;3.47;2.60;;;;;;;17.24;78.15;99981.59;5045350;28;20452;-68
2021/08/08 06:20:22;;;;;;;4.70;2.63;;;;;;;17.31;78.23;99993.50;5029218;28;20268;-67
2021/08/08 06:22:53;;;;;;;3.57;2.57;;;;;;;17.39;76.93;99996.22;5028966;28;20297;-67
2021/08/08 06:25:21;;;;;;;2.70;2.50;;;;;;;17.42;76.78;99998.59;5042275;28;20214;-67
2021/08/08 06:27:49;;;;;;;4.80;2.27;;;;;;;17.39;77.43;99994.34;5037644;28;20228;-67
2021/08/08 06:30:19;;;;;;;2.83;2.53;;;;;;;17.29;77.14;99968.38;5028780;28;20241;-67
2021/08/08 06:32:49;;;;;;;3.20;2.70;;;;;;;17.25;78.99;100000.44;5028997;28;20206;-68
2021/08/08 06:35:18;;;;;;;3.33;2.97;;;;;;;17.33;77.87;99994.19;5028751;28;20205;-67
2021/08/08 06:37:46;;;;;;;4.10;2.57;;;;;;;17.27;78.76;99987.56;5028528;28;20203;-67
2021/08/08 06:40:18;;;;;;;3.90;2.97;;;;;;;17.29;78.37;99990.09;5028642;28;20222;-67
2021/08/08 06:42:46;;;;;;;2.97;2.67;;;;;;;17.11;79.19;99992.91;5028723;28;20313;-67
2021/08/08 06:45:17;;;;;;;3.57;2.70;;;;;;;17.10;79.74;99998.50;5045192;28;20217;-67
2021/08/08 06:47:46;;;;;;;2.87;2.43;;;;;;;16.78;80.13;99975.66;5028526;28;20210;-67
2021/08/08 06:50:15;;;;;;;3.13;2.60;;;;;;;17.02;79.96;100002.91;5028518;28;20203;-67
2021/08/08 06:52:43;;;;;;;2.73;2.50;;;;;;;17.12;79.72;100004.63;5028192;28;20190;-67
2021/08/08 06:55:12;;;;;;;4.10;3.10;;;;;;;17.13;79.74;100009.03;5045140;28;20207;-67
2021/08/08 06:57:41;;;;;;;2.90;2.50;;;;;;;17.02;79.66;99997.47;5029492;28;20195;-68
2021/08/08 07:00:15;;;;;;;4.77;2.70;;;;;;;17.05;79.95;100007.16;5028606;28;20202;-67
2021/08/08 07:02:43;;;;;;;3.57;2.90;;;;;;;17.10;80.13;100012.06;5026636;28;20602;-67
2021/08/08 07:05:12;;;;;;;3.50;2.93;;;;;;;16.86;80.06;99983.00;5017565;28;20198;-67
2021/08/08 07:07:40;;;;;;;6.83;3.53;;;;;;;16.83;82.12;100014.00;5028171;28;20206;-67
2021/08/08 07:10:09;;;;;;;3.57;2.70;;;;;;;16.95;80.94;100020.84;5029515;28;20194;-66
2021/08/08 07:12:38;;;;;;;3.03;2.73;;;;;;;16.89;82.40;100020.66;5028197;28;20632;-67
2021/08/08 07:15:10;;;;;;;4.97;2.80;;;;;;;16.74;82.45;100009.53;5040390;28;20705;-68
2021/08/08 07:17:40;;;;;;;6.73;3.50;;;;;;;16.89;82.14;100005.22;5020560;28;20228;-66
2021/08/08 07:20:09;;;;;;;867.00;700.17;;;;;;;16.91;83.52;99996.94;5028081;28;20206;-67
2021/08/08 07:22:37;;;;;;;4.63;3.43;;;;;;;16.63;83.29;99951.00;5044455;28;20534;-67
2021/08/08 07:25:07;;;;;;;5.00;3.30;;;;;;;16.99;83.22;99994.25;5041075;28;20196;-67
2021/08/08 07:27:35;;;;;;;814.47;659.87;;;;;;;16.98;83.97;99998.81;5034872;28;20719;-67
2021/08/08 07:30:04;;;;;;;3.67;2.80;;;;;;;16.95;83.62;99999.16;5044636;28;20601;-67
2021/08/08 07:32:37;;;;;;;4.80;3.23;;;;;;;17.05;83.25;100015.28;5044704;28;20745;-67
2021/08/08 07:35:06;;;;;;;5.33;2.93;;;;;;;17.13;83.14;100009.03;5044617;28;20202;-67
2021/08/08 07:37:34;;;;;;;6.37;2.90;;;;;;;17.25;82.51;100010.44;5044752;28;20256;-68
2021/08/08 07:40:03;;;;;;;3.80;3.03;;;;;;;17.29;82.50;100025.38;5044487;28;20219;-67
2021/08/08 07:42:31;;;;;;;858.37;700.87;;;;;;;17.30;81.69;100018.94;5044899;28;20214;-67
2021/08/08 07:45:00;;;;;;;3.83;3.00;;;;;;;17.31;81.61;100017.91;5044633;28;20584;-67
2021/08/08 07:47:28;;;;;;;4.27;2.80;;;;;;;17.32;80.50;100014.19;5029478;28;20202;-67
2021/08/08 07:49:57;;;;;;;5.80;3.33;;;;;;;17.50;79.53;100014.94;5021174;28;20199;-67
2021/08/08 07:52:26;;;;;;;4.67;2.63;;;;;;;17.38;79.94;100013.53;5039578;28;20487;-68
2021/08/08 07:54:56;;;;;;;769.20;568.70;;;;;;;17.37;80.22;100003.69;5027531;28;20330;-67
2021/08/08 07:57:25;;;;;;;758.37;541.83;;;;;;;17.44;80.82;100023.72;5028182;28;20217;-68
2021/08/08 07:59:53;;;;;;;731.13;506.47;;;;;;;17.35;81.37;100001.13;5015011;28;20210;-68
2021/08/08 08:02:21;;;;;;;721.77;486.20;;;;;;;17.19;82.15;99998.41;5028083;28;20233;-68
2021/08/08 08:04:50;;;;;;;767.97;552.40;;;;;;;17.01;82.66;100003.91;5045629;28;20226;-68
2021/08/08 08:07:19;;;;;;;789.03;590.20;;;;;;;17.13;82.82;100030.72;5041265;28;20439;-68
2021/08/08 08:09:48;;;;;;;4.57;2.50;;;;;;;17.14;82.63;100018.88;5041729;28;20467;-68
2021/08/08 08:12:17;;;;;;;4.40;3.30;;;;;;;17.35;82.00;100039.13;5028021;28;20203;-67
2021/08/08 08:14:45;;;;;;;2.80;2.50;;;;;;;17.45;81.98;100044.44;5028889;28;20686;-68
2021/08/08 08:17:13;;;;;;;3.43;2.80;;;;;;;17.58;81.16;100041.25;5028984;28;20198;-68
2021/08/08 08:19:41;;;;;;;4.00;2.83;;;;;;;17.32;81.35;99989.75;5026121;28;20226;-68
2021/08/08 08:22:09;;;;;;;22.40;18.23;;;;;;;17.57;81.49;100045.81;5015008;28;20226;-67
2021/08/08 08:24:41;;;;;;;2.73;2.50;;;;;;;17.71;80.30;100038.06;5044115;28;20291;-68
2021/08/08 08:27:10;;;;;;;5.10;2.63;;;;;;;17.67;79.96;100018.53;5016963;28;20573;-68
2021/08/08 08:29:38;;;;;;;3.80;2.93;;;;;;;17.76;80.21;100027.56;5032264;28;20230;-68
2021/08/08 08:32:07;;;;;;;729.60;496.17;;;;;;;17.77;81.54;100040.97;5032356;28;20191;-67
2021/08/08 08:34:35;;;;;;;448.63;294.80;;;;;;;17.59;82.00;100041.06;5032311;28;20202;-67
2021/08/08 08:37:04;;;;;;;3.70;2.70;;;;;;;17.62;81.49;100048.03;5047776;28;20298;-68
2021/08/08 08:39:32;;;;;;;4.03;3.10;;;;;;;17.63;81.69;100056.00;5048011;28;20206;-67
2021/08/08 08:42:03;;;;;;;3.67;2.87;;;;;;;17.55;81.94;100060.59;5032385;28;20273;-68
2021/08/08 08:44:31;;;;;;;6.23;2.80;;;;;;;17.58;82.30;100062.97;5047895;28;20301;-68
2021/08/08 08:47:00;;;;;;;3.50;3.00;;;;;;;17.60;82.11;100075.34;5047069;28;20268;-68
2021/08/08 08:49:29;;;;;;;3.17;2.87;;;;;;;17.52;81.67;100045.47;5030881;28;20209;-68
2021/08/08 08:52:03;;;;;;;4.43;2.60;;;;;;;17.81;81.17;100061.34;5044183;28;20207;-68
2021/08/08 08:54:33;;;;;;;3.83;2.90;;;;;;;17.77;81.77;100072.72;5045654;28;20244;-68
2021/08/08 08:57:06;;;;;;;4.00;2.77;;;;;;;17.75;81.29;100058.44;5047687;28;20233;-68
2021/08/08 08:59:35;;;;;;;5.53;2.80;;;;;;;17.90;80.87;100068.50;5032108;28;20203;-67
2021/08/08 09:02:04;;;;;;;4.07;3.00;;;;;;;17.76;80.80;100017.56;5047528;28;20685;-67
2021/08/08 09:04:32;;;;;;;3.87;2.80;;;;;;;18.06;80.91;100067.69;5017040;28;20203;-68
2021/08/08 09:07:01;;;;;;;3.73;3.03;;;;;;;18.16;80.33;100067.50;5021916;28;20547;-67
2021/08/08 09:09:30;;;;;;;5.20;2.90;;;;;;;18.16;80.95;100057.47;5027091;28;20207;-67
2021/08/08 09:11:58;;;;;;;3.90;3.10;;;;;;;17.95;80.25;100024.50;5031495;28;20416;-67
2021/08/08 09:14:28;;;;;;;4.90;2.87;;;;;;;18.26;80.45;100041.84;5030753;28;20560;-68
2021/08/08 09:16:57;;;;;;;3.20;2.90;;;;;;;18.34;80.71;100049.13;5018150;28;20268;-68
2021/08/08 09:19:34;;;;;;;5.40;3.07;;;;;;;18.35;80.40;100056.25;5030844;28;20205;-68
2021/08/08 09:22:06;;;;;;;3.40;2.70;;;;;;;17.99;80.87;99998.69;5037815;28;20289;-68
2021/08/08 09:24:41;;;;;;;3.13;2.70;;;;;;;18.30;81.01;100032.31;5030172;28;20686;-67
2021/08/08 09:27:13;;;;;;;4.70;3.27;;;;;;;18.27;80.82;100015.50;5031872;28;20202;-68
2021/08/08 09:29:48;;;;;;;3.10;2.70;;;;;;;18.62;81.42;100055.06;5046888;28;20258;-68
2021/08/08 09:32:19;;;;;;;3.43;2.97;;;;;;;18.74;80.97;100058.31;5047129;28;20656;-68
2021/08/08 09:34:52;;;;;;;10.80;2.80;;;;;;;18.52;80.31;100010.88;5046832;28;20249;-68
2021/08/08 09:37:22;;;;;;;2.93;2.63;;;;;;;18.53;79.25;100018.00;5031533;28;20622;-68
2021/08/08 09:39:52;;;;;;;3.20;2.90;;;;;;;18.88;79.42;100066.59;5030543;28;20719;-68
2021/08/08 09:42:24;;;;;;;3.70;2.60;;;;;;;19.08;78.77;100053.44;5046756;28;20207;-68
2021/08/08 09:44:57;;;;;;;3.80;2.80;;;;;;;19.03;79.01;100023.19;5029935;28;20208;-68
2021/08/08 09:47:38;;;;;;;4.87;2.60;;;;;;;19.10;78.70;100045.09;5030969;28;20201;-67
2021/08/08 09:50:08;;;;;;;2.60;2.40;;;;;;;19.08;78.86;100034.38;5031174;28;20202;-68
2021/08/08 09:52:38;;;;;;;4.83;2.90;;;;;;;19.12;78.39;100023.97;5045475;28;20269;-68
2021/08/08 09:55:18;;;;;;;6.83;2.80;;;;;;;19.08;78.51;100025.38;5031374;28;20199;-68
2021/08/08 09:57:46;;;;;;;6.13;2.80;;;;;;;19.14;78.56;100036.38;5030698;28;20202;-68
2021/08/08 10:00:25;;;;;;;3.23;2.50;;;;;;;19.23;78.62;100026.31;5031110;28;20199;-68
2021/08/08 10:02:54;;;;;;;4.57;2.80;;;;;;;19.15;78.11;100018.19;5030692;28;20333;-68
2021/08/08 10:05:25;;;;;;;5.03;2.60;;;;;;;19.19;78.34;100020.38;5030847;28;20226;-68
2021/08/08 10:07:54;;;;;;;2.57;2.37;;;;;;;19.11;77.72;100014.13;5016594;28;20199;-68
2021/08/08 10:10:24;;;;;;;2.87;2.40;;;;;;;19.24;77.51;100036.16;5030475;28;20194;-68
2021/08/08 10:13:06;;;;;;;2.63;2.43;;;;;;;19.29;78.40;100036.50;5030443;28;20193;-68
2021/08/08 10:15:37;;;;;;;2.70;2.50;;;;;;;19.24;78.78;100026.13;5030893;28;20563;-67
2021/08/08 10:18:07;;;;;;;2.63;2.23;;;;;;;19.25;77.99;100024.25;5030456;28;20264;-68
2021/08/08 10:20:36;;;;;;;4.00;2.40;;;;;;;19.17;78.19;100013.41;5030544;28;20229;-68
2021/08/08 10:23:04;;;;;;;2.63;2.30;;;;;;;19.24;78.09;100028.84;5030256;28;20679;-68
2021/08/08 10:25:32;;;;;;;4.27;2.30;;;;;;;19.29;77.30;100031.06;5030743;28;20203;-68
2021/08/08 10:28:01;;;;;;;2.93;2.50;;;;;;;19.31;76.86;100041.78;5029361;28;20210;-68
2021/08/08 10:30:34;;;;;;;2.57;2.10;;;;;;;19.18;78.00;100026.00;5030381;28;20716;-68
2021/08/08 10:33:05;;;;;;;2.70;2.20;;;;;;;19.15;78.31;100040.81;5029981;28;20221;-68
2021/08/08 10:35:38;;;;;;;2.17;2.07;;;;;;;19.04;78.57;100045.81;5030149;28;20207;-68
2021/08/08 10:38:07;;;;;;;4.30;2.30;;;;;;;19.10;78.51;100042.38;5030288;28;20206;-68
2021/08/08 10:40:37;;;;;;;6.47;2.67;;;;;;;19.13;78.51;100042.00;5030064;28;20719;-68
2021/08/08 10:43:07;;;;;;;3.43;2.47;;;;;;;19.19;78.37;100052.19;5030548;28;20213;-67
2021/08/08 10:45:36;;;;;;;2.33;2.00;;;;;;;19.12;78.73;100057.50;5029949;28;20702;-68
2021/08/08 10:48:08;;;;;;;2.27;2.07;;;;;;;19.00;79.23;100058.06;5030155;28;20384;-68
2021/08/08 10:50:42;;;;;;;2.87;1.97;;;;;;;19.06;79.01;100054.63;5016394;28;20289;-68
2021/08/08 10:53:21;;;;;;;2.47;2.20;;;;;;;18.96;79.33;100065.72;5017101;28;20572;-68
2021/08/08 10:55:50;;;;;;;3.13;2.23;;;;;;;18.95;79.10;100055.00;5029067;28;20663;-68
2021/08/08 10:58:21;;;;;;;5.83;2.20;;;;;;;19.14;78.98;100076.38;5017008;28;20660;-68
2021/08/08 11:00:49;;;;;;;3.43;2.40;;;;;;;19.22;79.03;100066.28;5029605;28;20202;-68
2021/08/08 11:03:19;;;;;;;4.30;2.30;;;;;;;19.16;79.78;100064.28;5029959;28;20737;-68
2021/08/08 11:05:47;;;;;;;3.30;2.33;;;;;;;19.11;79.72;100076.72;5029673;28;20624;-68
2021/08/08 11:08:16;;;;;;;3.07;2.53;;;;;;;19.06;80.04;100070.97;5029392;28;20239;-67
2021/08/08 11:10:45;;;;;;;2.13;1.90;;;;;;;19.01;80.15;100076.09;5029461;28;20758;-68
2021/08/08 11:13:22;;;;;;;2.27;2.07;;;;;;;19.03;80.51;100080.34;5029583;28;20659;-68
2021/08/08 11:15:51;;;;;;;2.60;2.00;;;;;;;18.72;80.76;100012.22;5029517;28;20663;-68
2021/08/08 11:18:30;;;;;;;2.87;2.10;;;;;;;19.13;80.91;100069.25;5015591;28;20191;-68
2021/08/08 11:20:59;;;;;;;2.53;1.97;;;;;;;19.10;80.27;100075.03;5017848;28;20199;-68
2021/08/08 11:23:29;;;;;;;4.70;2.23;;;;;;;19.23;80.56;100075.31;5027166;28;20591;-68
2021/08/08 11:25:59;;;;;;;2.10;1.90;;;;;;;19.30;79.99;100065.44;5029199;28;20678;-68
2021/08/08 11:28:27;;;;;;;2.17;1.97;;;;;;;19.49;80.25;100081.31;5029306;28;20533;-68
2021/08/08 11:30:55;;;;;;;2.47;1.90;;;;;;;19.58;80.09;100073.13;5029010;28;20238;-68
2021/08/08 11:33:26;;;;;;;4.70;2.00;;;;;;;19.51;79.65;100054.75;5029270;28;20698;-68
2021/08/08 11:36:01;;;;;;;2.60;2.00;;;;;;;19.71;79.02;100068.81;5020698;28;20207;-68
2021/08/08 11:38:32;;;;;;;2.03;1.93;;;;;;;19.69;78.35;100061.84;5024976;28;20213;-68
2021/08/08 11:41:00;;;;;;;2.77;1.83;;;;;;;19.76;78.29;100079.19;5029036;28;20199;-68